Time;durP1;ratioP1;P1;durP2;ratioP2;P2;SDS_P1;SDS_P2;PMS_P1;PMS_P2;Temp;Humidity;BMP_temperature;BMP_pressure;BME280_temperature;BME280_humidity;BME280_pressure;Samples;Min_cycle;Max_cycle;Signal;HPM_P1;HPM_P2
2021/04/27 00:02:29;;;;;;;2.72;1.90;;;;;;;-139.48;100.00;61774.03;5014433;28;20107;-69
2021/04/27 00:05:16;;;;;;;6.10;1.88;;;;;;;-139.48;100.00;61774.03;5014549;28;20133;-69
2021/04/27 00:08:00;;;;;;;7.43;1.70;;;;;;;-139.48;100.00;61774.03;5014396;28;20053;-69
2021/04/27 00:10:44;;;;;;;;;;;;;;;-139.48;100.00;61774.03;5014646;28;20064;-69
2021/04/27 00:13:28;;;;;;;2.50;1.67;;;;;;;-139.48;100.00;61774.03;5014168;28;19920;-69
2021/04/27 00:16:12;;;;;;;5.80;1.85;;;;;;;-139.48;100.00;61774.03;5014376;28;20068;-69
2021/04/27 00:18:56;;;;;;;3.58;2.35;;;;;;;-139.48;100.00;61774.03;5015207;28;20088;-69
2021/04/27 00:21:40;;;;;;;4.25;1.95;;;;;;;-139.48;100.00;61774.03;5014046;28;20591;-69
2021/04/27 00:24:26;;;;;;;3.28;2.25;;;;;;;-139.48;100.00;61774.03;5014179;28;20053;-69
2021/04/27 00:27:10;;;;;;;3.17;1.80;;;;;;;-139.48;100.00;61774.03;5014461;28;20056;-69
2021/04/27 00:29:54;;;;;;;4.72;2.00;;;;;;;-139.48;100.00;61774.03;4999990;28;20113;-69
2021/04/27 00:32:37;;;;;;;4.10;2.03;;;;;;;-139.48;100.00;61774.03;5000497;28;20107;-69
2021/04/27 00:35:22;;;;;;;2.90;2.05;;;;;;;-139.48;100.00;61774.03;5014883;28;20045;-69
2021/04/27 00:38:06;;;;;;;;;;;;;;;-139.48;100.00;61774.03;5014468;28;20099;-69
2021/04/27 00:40:49;;;;;;;6.95;2.05;;;;;;;-139.48;100.00;61774.03;5013968;28;19920;-69
2021/04/27 00:43:37;;;;;;;3.15;2.03;;;;;;;-139.48;100.00;61774.03;5014009;28;20053;-69
2021/04/27 00:46:20;;;;;;;3.95;2.10;;;;;;;-139.48;100.00;61774.03;5014604;28;20045;-69
2021/04/27 00:49:04;;;;;;;5.57;2.17;;;;;;;-139.48;100.00;61774.03;5014733;28;20099;-69
2021/04/27 00:51:48;;;;;;;3.75;2.17;;;;;;;-139.48;100.00;61774.03;5013467;28;20184;-69
2021/04/27 00:54:33;;;;;;;3.08;1.90;;;;;;;-139.48;100.00;61774.03;5013495;28;20053;-69
2021/04/27 00:57:18;;;;;;;3.58;2.42;;;;;;;-139.48;100.00;61774.03;5013779;28;20561;-69
2021/04/27 01:00:08;;;;;;;4.80;2.17;;;;;;;-139.48;100.00;61774.03;5015871;28;20052;-69
2021/04/27 01:02:52;;;;;;;5.03;2.10;;;;;;;-139.48;100.00;61774.03;4999956;28;20442;-69
2021/04/27 01:05:38;;;;;;;3.08;1.90;;;;;;;-139.48;100.00;61774.03;5013295;28;20045;-69
2021/04/27 01:08:29;;;;;;;3.28;2.30;;;;;;;-139.48;100.00;61774.03;5013642;28;20056;-69
2021/04/27 01:11:16;;;;;;;9.77;2.40;;;;;;;-139.48;100.00;61774.03;5013735;28;20104;-69
2021/04/27 01:14:14;;;;;;;5.28;2.50;;;;;;;-139.48;100.00;61774.03;5014407;28;20057;-70
2021/04/27 01:17:07;;;;;;;3.67;2.47;;;;;;;-139.48;100.00;61774.03;5012632;28;20052;-69
2021/04/27 01:20:23;;;;;;;5.00;2.15;;;;;;;-139.48;100.00;61774.03;4999358;28;20100;-68
2021/04/27 01:23:18;;;;;;;4.32;2.38;;;;;;;-139.48;100.00;61774.03;5005301;28;20072;-69
2021/04/27 01:26:09;;;;;;;3.33;2.22;;;;;;;-139.48;100.00;61774.03;5012883;28;20064;-69
2021/04/27 01:28:53;;;;;;;3.55;2.25;;;;;;;-139.48;100.00;61774.03;5012778;28;20048;-69
2021/04/27 01:31:39;;;;;;;5.25;2.72;;;;;;;-139.48;100.00;61774.03;5012982;28;20052;-68
2021/04/27 01:34:25;;;;;;;5.88;2.45;;;;;;;-139.48;100.00;61774.03;5012817;28;20103;-69
2021/04/27 01:37:11;;;;;;;10.35;2.88;;;;;;;-139.48;100.00;61774.03;5013106;28;20438;-69
2021/04/27 01:39:55;;;;;;;4.28;2.30;;;;;;;-139.48;100.00;61774.03;5012955;28;20126;-69
2021/04/27 01:42:39;;;;;;;3.95;2.40;;;;;;;-139.48;100.00;61774.03;4999104;28;20052;-69
2021/04/27 01:45:27;;;;;;;4.05;2.47;;;;;;;-139.48;100.00;61774.03;5012876;28;20045;-69
2021/04/27 01:48:11;;;;;;;3.50;2.47;;;;;;;-139.48;100.00;61774.03;5042567;23;20057;-69
2021/04/27 01:50:55;;;;;;;5.53;2.33;;;;;;;-139.48;100.00;61774.03;5018250;28;20060;-69
2021/04/27 01:53:40;;;;;;;;;;;;;;;-139.48;100.00;61774.03;5018653;28;20087;-69
2021/04/27 01:56:24;;;;;;;3.85;2.22;;;;;;;-139.48;100.00;61774.03;5018487;28;19920;-69
2021/04/27 01:59:08;;;;;;;;;;;;;;;-139.48;100.00;61774.03;5012760;28;20108;-69
2021/04/27 02:01:52;;;;;;;9.60;1.92;;;;;;;-139.48;100.00;61774.03;4999057;28;19944;-69
2021/04/27 02:04:36;;;;;;;6.38;1.95;;;;;;;-139.48;100.00;61774.03;5012639;28;20136;-69
2021/04/27 02:07:23;;;;;;;6.38;2.28;;;;;;;-139.48;100.00;61774.03;5012543;28;20052;-69
2021/04/27 02:10:11;;;;;;;4.18;2.20;;;;;;;-139.48;100.00;61774.03;5012984;28;20036;-69
2021/04/27 02:12:57;;;;;;;3.85;2.38;;;;;;;-139.48;100.00;61774.03;5012616;28;20541;-69
2021/04/27 02:15:42;;;;;;;4.70;2.60;;;;;;;-139.48;100.00;61774.03;5012295;28;20431;-68
2021/04/27 02:18:36;;;;;;;;;;;;;;;-139.48;100.00;61774.03;5013113;28;20514;-69
2021/04/27 02:21:21;;;;;;;4.43;2.20;;;;;;;-139.48;100.00;61774.03;4998607;28;19921;-69
2021/04/27 02:24:05;;;;;;;;;;;;;;;-139.48;100.00;61774.03;5012609;28;20056;-69
2021/04/27 02:26:51;;;;;;;8.90;2.60;;;;;;;-139.48;100.00;61774.03;4999763;28;19920;-69
2021/04/27 02:29:36;;;;;;;8.93;2.50;;;;;;;-139.48;100.00;61774.03;5016302;28;20072;-69
2021/04/27 02:32:21;;;;;;;3.22;2.50;;;;;;;-139.48;100.00;61774.03;5016312;28;20088;-69
2021/04/27 02:35:06;;;;;;;4.05;2.40;;;;;;;-139.48;100.00;61774.03;5002065;28;20576;-69
2021/04/27 02:37:52;;;;;;;5.95;2.55;;;;;;;-139.48;100.00;61774.03;5016193;28;20040;-69
2021/04/27 02:40:36;;;;;;;5.18;2.20;;;;;;;-139.48;100.00;61774.03;5016166;28;20540;-69
2021/04/27 02:43:20;;;;;;;;;;;;;;;-139.48;100.00;61774.03;5016478;28;20048;-69
2021/04/27 02:46:05;;;;;;;5.80;2.78;;;;;;;-139.48;100.00;61774.03;5002005;28;19928;-69
2021/04/27 02:48:49;;;;;;;2.83;2.30;;;;;;;-139.48;100.00;61774.03;5015594;28;20044;-69
2021/04/27 02:51:33;;;;;;;7.10;2.72;;;;;;;-139.48;100.00;61774.03;5015695;28;20054;-69
2021/04/27 02:54:17;;;;;;;5.43;2.42;;;;;;;-139.48;100.00;61774.03;5015648;28;20056;-69
2021/04/27 02:57:01;;;;;;;3.55;2.45;;;;;;;-139.48;100.00;61774.03;5015860;28;20537;-69
2021/04/27 02:59:45;;;;;;;5.68;2.90;;;;;;;-139.48;100.00;61774.03;5015807;28;20056;-69
2021/04/27 03:02:29;;;;;;;3.17;2.35;;;;;;;-139.48;100.00;61774.03;5001625;28;20100;-69
2021/04/27 03:05:13;;;;;;;6.40;2.80;;;;;;;-139.48;100.00;61774.03;5001818;28;20462;-69
2021/04/27 03:07:58;;;;;;;6.03;2.92;;;;;;;-139.48;100.00;61774.03;5015380;28;20052;-69
2021/04/27 03:10:42;;;;;;;8.07;2.72;;;;;;;-139.48;100.00;61774.03;5016601;28;20421;-69
2021/04/27 03:13:26;;;;;;;6.07;2.78;;;;;;;-139.48;100.00;61774.03;5001659;28;20053;-69
2021/04/27 03:16:10;;;;;;;3.95;2.60;;;;;;;-139.48;100.00;61774.03;5015270;28;20103;-69
2021/04/27 03:18:54;;;;;;;7.13;3.10;;;;;;;-139.48;100.00;61774.03;5015255;28;20096;-69
2021/04/27 03:21:38;;;;;;;5.13;2.85;;;;;;;-139.48;100.00;61774.03;5016405;28;20056;-69
2021/04/27 03:24:22;;;;;;;4.25;2.72;;;;;;;-139.48;100.00;61774.03;5015345;28;20080;-69
2021/04/27 03:27:06;;;;;;;6.70;3.03;;;;;;;-139.48;100.00;61774.03;5014958;28;20096;-69
2021/04/27 03:29:50;;;;;;;7.75;2.53;;;;;;;-139.48;100.00;61774.03;5014895;28;20127;-69
2021/04/27 03:32:34;;;;;;;;;;;;;;;-139.48;100.00;61774.03;5015649;28;20521;-69
2021/04/27 03:35:18;;;;;;;4.82;2.30;;;;;;;-139.48;100.00;61774.03;5015490;28;19940;-68
2021/04/27 03:38:02;;;;;;;6.85;2.95;;;;;;;-139.48;100.00;61774.03;5014705;28;20565;-69
2021/04/27 03:40:47;;;;;;;6.10;2.85;;;;;;;-139.48;100.00;61774.03;5015981;28;20443;-69
2021/04/27 03:43:31;;;;;;;5.97;2.45;;;;;;;-139.48;100.00;61774.03;5014704;28;20048;-68
2021/04/27 03:46:14;;;;;;;4.50;2.75;;;;;;;-139.48;100.00;61774.03;5014929;28;20096;-69
2021/04/27 03:48:58;;;;;;;13.75;3.78;;;;;;;-139.48;100.00;61774.03;5000443;28;20041;-68
2021/04/27 03:51:42;;;;;;;3.45;2.50;;;;;;;-139.48;100.00;61774.03;5000960;28;20191;-68
2021/04/27 03:54:26;;;;;;;6.03;2.45;;;;;;;-139.48;100.00;61774.03;5014490;28;20049;-69
2021/04/27 03:57:10;;;;;;;7.28;2.80;;;;;;;-139.48;100.00;61774.03;5014925;28;20111;-69
2021/04/27 03:59:54;;;;;;;4.47;2.55;;;;;;;-139.48;100.00;61774.03;5014601;28;20091;-69
2021/04/27 04:02:39;;;;;;;9.45;3.03;;;;;;;-139.48;100.00;61774.03;5014370;28;20067;-69
2021/04/27 04:05:23;;;;;;;7.03;2.75;;;;;;;-139.48;100.00;61774.03;5014405;28;20053;-69
2021/04/27 04:08:07;;;;;;;5.32;2.30;;;;;;;-139.48;100.00;61774.03;5000540;28;20549;-69
2021/04/27 04:10:51;;;;;;;5.40;2.40;;;;;;;-139.48;100.00;61774.03;5000619;28;20057;-69
2021/04/27 04:13:35;;;;;;;2.53;2.10;;;;;;;-139.48;100.00;61774.03;5014466;28;20159;-69
2021/04/27 04:16:19;;;;;;;7.95;2.67;;;;;;;-139.48;100.00;61774.03;5014269;28;20434;-69
2021/04/27 04:19:03;;;;;;;7.43;2.55;;;;;;;-139.48;100.00;61774.03;5014393;28;20445;-68
2021/04/27 04:21:47;;;;;;;;;;;;;;;-139.48;100.00;61774.03;5014765;28;20087;-68
2021/04/27 04:24:32;;;;;;;6.60;2.80;;;;;;;-139.48;100.00;61774.03;5000401;28;19967;-68
2021/04/27 04:27:16;;;;;;;;;;;;;;;-139.48;100.00;61774.03;5015397;28;20411;-69
2021/04/27 04:30:01;;;;;;;5.50;2.80;;;;;;;-139.48;100.00;61774.03;5000207;28;20377;-69
2021/04/27 04:32:46;;;;;;;8.18;2.83;;;;;;;-139.48;100.00;61774.03;5013792;28;20091;-69
2021/04/27 04:35:30;;;;;;;3.83;2.42;;;;;;;-139.48;100.00;61774.03;5014264;28;20049;-68
2021/04/27 04:38:17;;;;;;;5.55;2.80;;;;;;;-139.48;100.00;61774.03;5013917;28;20411;-69
2021/04/27 04:41:02;;;;;;;8.90;2.35;;;;;;;-139.48;100.00;61774.03;5000662;28;20100;-68
2021/04/27 04:43:46;;;;;;;4.55;2.25;;;;;;;-139.48;100.00;61774.03;5013523;28;20053;-68
2021/04/27 04:46:30;;;;;;;4.15;2.40;;;;;;;-139.48;100.00;61774.03;5014993;28;20048;-69
2021/04/27 04:49:13;;;;;;;4.32;2.50;;;;;;;-139.48;100.00;61774.03;5013064;28;20049;-69
2021/04/27 04:51:57;;;;;;;3.60;2.63;;;;;;;-139.48;100.00;61774.03;5013908;28;20092;-69
2021/04/27 04:54:41;;;;;;;6.70;3.05;;;;;;;-139.48;100.00;61774.03;5013584;28;20582;-68
2021/04/27 04:57:25;;;;;;;6.10;2.17;;;;;;;-139.48;100.00;61774.03;5013465;28;20053;-69
2021/04/27 05:00:12;;;;;;;3.58;2.60;;;;;;;-139.48;100.00;61774.03;5013756;28;20045;-68
2021/04/27 05:02:56;;;;;;;8.52;3.03;;;;;;;-139.48;100.00;61774.03;5014447;28;20049;-68
2021/04/27 05:05:42;;;;;;;4.55;2.20;;;;;;;-139.48;100.00;61774.03;5013383;28;20049;-68
2021/04/27 05:08:33;;;;;;;6.13;2.38;;;;;;;-139.48;100.00;61774.03;5013269;28;20049;-69
2021/04/27 05:11:17;;;;;;;3.38;2.45;;;;;;;-139.48;100.00;61774.03;5000211;28;20060;-68
2021/04/27 05:14:01;;;;;;;6.97;2.88;;;;;;;-139.48;100.00;61774.03;5013499;28;20052;-69
2021/04/27 05:16:45;;;;;;;8.13;2.90;;;;;;;-139.48;100.00;61774.03;5013106;28;20111;-69
2021/04/27 05:19:29;;;;;;;6.65;2.65;;;;;;;-139.48;100.00;61774.03;5013220;28;20103;-69
2021/04/27 05:22:13;;;;;;;6.45;2.30;;;;;;;-139.48;100.00;61774.03;5012857;28;20048;-69
2021/04/27 05:24:57;;;;;;;4.47;2.60;;;;;;;-139.48;100.00;61774.03;4999148;28;20501;-69
2021/04/27 05:27:41;;;;;;;7.10;2.80;;;;;;;-139.48;100.00;61774.03;5012898;28;20095;-68
2021/04/27 05:30:25;;;;;;;4.63;2.67;;;;;;;-139.48;100.00;61774.03;5013014;28;20565;-69
2021/04/27 05:33:09;;;;;;;;;;;;;;;-139.48;100.00;61774.03;5013075;28;20044;-68
2021/04/27 05:35:53;;;;;;;5.35;2.47;;;;;;;-139.48;100.00;61774.03;4999066;28;20354;-69
2021/04/27 05:38:37;;;;;;;5.00;2.63;;;;;;;-139.48;100.00;61774.03;5012494;28;20044;-69
2021/04/27 05:41:21;;;;;;;3.97;2.42;;;;;;;-139.48;100.00;61774.03;5012662;28;20052;-69
2021/04/27 05:44:06;;;;;;;9.75;3.67;;;;;;;-139.48;100.00;61774.03;5012778;28;20108;-68
2021/04/27 05:46:50;;;;;;;4.80;2.67;;;;;;;-139.48;100.00;61774.03;5012998;28;20458;-69
2021/04/27 05:49:34;;;;;;;5.20;2.30;;;;;;;-139.48;100.00;61774.03;5012704;28;20415;-69
2021/04/27 05:52:18;;;;;;;5.68;2.53;;;;;;;-139.48;100.00;61774.03;5012517;28;20069;-68
2021/04/27 05:55:03;;;;;;;7.05;2.55;;;;;;;-139.48;100.00;61774.03;5012487;28;20049;-69
2021/04/27 05:57:47;;;;;;;9.43;3.60;;;;;;;-139.48;100.00;61774.03;5026677;28;20053;-68
2021/04/27 06:00:31;;;;;;;6.47;2.53;;;;;;;-139.48;100.00;61774.03;5012614;28;20068;-69
2021/04/27 06:03:18;;;;;;;3.92;2.42;;;;;;;-139.48;100.00;61774.03;5012508;28;20145;-69
2021/04/27 06:06:02;;;;;;;5.13;2.60;;;;;;;-139.48;100.00;61774.03;5012788;28;20080;-69
2021/04/27 06:08:46;;;;;;;5.55;2.55;;;;;;;-139.48;100.00;61774.03;5026135;28;20048;-68
2021/04/27 06:11:30;;;;;;;3.20;2.13;;;;;;;-139.48;100.00;61774.03;5012376;28;20057;-69
2021/04/27 06:14:14;;;;;;;3.58;2.55;;;;;;;-139.48;100.00;61774.03;5012367;28;20045;-69
2021/04/27 06:16:58;;;;;;;7.15;2.50;;;;;;;-139.48;100.00;61774.03;5012232;28;20056;-69
2021/04/27 06:19:42;;;;;;;;;;;;;;;-139.48;100.00;61774.03;4999333;28;20452;-69
2021/04/27 06:22:26;;;;;;;6.57;2.45;;;;;;;-139.48;100.00;61774.03;4998711;28;19920;-69
2021/04/27 06:25:11;;;;;;;4.05;2.30;;;;;;;-139.48;100.00;61774.03;5012444;28;20052;-69
2021/04/27 06:27:54;;;;;;;;;;;;;;;-139.48;100.00;61774.03;5012708;28;20509;-69
2021/04/27 06:30:38;;;;;;;4.10;2.38;;;;;;;-139.48;100.00;61774.03;4998814;28;19924;-68
2021/04/27 06:33:22;;;;;;;5.13;2.50;;;;;;;-139.48;100.00;61774.03;5012369;28;20049;-69
2021/04/27 06:36:06;;;;;;;4.40;2.60;;;;;;;-139.48;100.00;61774.03;5012268;28;20553;-69
2021/04/27 06:38:50;;;;;;;;;;;;;;;-139.48;100.00;61774.03;4998509;28;20088;-69
2021/04/27 06:41:35;;;;;;;5.43;2.43;;;;;;;-139.48;100.00;61774.03;4998522;28;19920;-69
2021/04/27 06:44:19;;;;;;;3.92;2.33;;;;;;;-139.48;100.00;61774.03;5012287;28;20092;-69
2021/04/27 06:47:04;;;;;;;5.85;2.80;;;;;;;-139.48;100.00;61774.03;5012235;28;20049;-69
2021/04/27 06:49:49;;;;;;;7.60;2.70;;;;;;;-139.48;100.00;61774.03;5011925;28;20164;-69
2021/04/27 06:52:33;;;;;;;5.85;2.42;;;;;;;-139.48;100.00;61774.03;5011860;28;20057;-69
2021/04/27 06:55:17;;;;;;;3.40;2.30;;;;;;;-139.48;100.00;61774.03;5011868;28;20072;-69
2021/04/27 06:58:06;;;;;;;6.53;2.70;;;;;;;-139.48;100.00;61774.03;4998223;28;20518;-69
2021/04/27 07:00:50;;;;;;;9.85;2.42;;;;;;;-139.48;100.00;61774.03;5011811;28;20128;-69
2021/04/27 07:03:34;;;;;;;6.07;2.58;;;;;;;-139.48;100.00;61774.03;5012057;28;20521;-69
2021/04/27 07:06:18;;;;;;;;;;;;;;;-139.48;100.00;61774.03;4998764;28;20053;-68
2021/04/27 07:09:03;;;;;;;6.38;2.97;;;;;;;-139.48;100.00;61774.03;4998047;28;20329;-69
2021/04/27 07:11:47;;;;;;;5.88;2.78;;;;;;;-139.48;100.00;61774.03;5011962;28;20073;-69
2021/04/27 07:14:31;;;;;;;7.78;2.90;;;;;;;-139.48;100.00;61774.03;5000455;28;20529;-69
2021/04/27 07:17:15;;;;;;;5.90;2.70;;;;;;;-139.48;100.00;61774.03;5015415;28;20455;-69
2021/04/27 07:19:59;;;;;;;7.05;2.67;;;;;;;-139.48;100.00;61774.03;5015495;28;20044;-69
2021/04/27 07:22:44;;;;;;;4.00;2.80;;;;;;;-139.48;100.00;61774.03;5015115;28;20052;-69
2021/04/27 07:25:28;;;;;;;8.35;2.83;;;;;;;-139.48;100.00;61774.03;5015464;28;20115;-69
2021/04/27 07:28:12;;;;;;;7.90;3.30;;;;;;;-139.48;100.00;61774.03;5015389;28;20072;-69
2021/04/27 07:30:56;;;;;;;5.97;2.78;;;;;;;-139.48;100.00;61774.03;5015291;28;20407;-69
2021/04/27 07:33:40;;;;;;;6.78;3.05;;;;;;;-139.48;100.00;61774.03;5015152;28;20103;-69
2021/04/27 07:36:24;;;;;;;5.18;2.80;;;;;;;-139.48;100.00;61774.03;5015410;28;20056;-69
2021/04/27 07:39:10;;;;;;;7.30;3.38;;;;;;;-139.48;100.00;61774.03;5014758;28;20052;-69
2021/04/27 07:41:54;;;;;;;8.75;2.65;;;;;;;-139.48;100.00;61774.03;5015114;28;20052;-69
2021/04/27 07:44:38;;;;;;;3.25;2.30;;;;;;;-139.48;100.00;61774.03;5014961;28;20053;-69
2021/04/27 07:47:23;;;;;;;4.55;2.60;;;;;;;-139.48;100.00;61774.03;5028615;28;20057;-69
2021/04/27 07:50:07;;;;;;;;;;;;;;;-139.48;100.00;61774.03;5042235;23;20180;-66
2021/04/27 07:52:52;;;;;;;4.47;2.90;;;;;;;-139.48;100.00;61774.03;5020414;28;19924;-66
2021/04/27 07:55:36;;;;;;;5.95;2.75;;;;;;;-139.48;100.00;61774.03;5020582;28;20103;-65
2021/04/27 07:58:20;;;;;;;5.80;2.90;;;;;;;-139.48;100.00;61774.03;5020719;28;20107;-66
2021/04/27 08:01:04;;;;;;;7.00;3.40;;;;;;;-139.48;100.00;61774.03;5020533;28;20103;-66
2021/04/27 08:03:48;;;;;;;6.05;2.90;;;;;;;-139.48;100.00;61774.03;5034402;28;20053;-65
2021/04/27 08:06:32;;;;;;;5.82;3.15;;;;;;;-139.48;100.00;61774.03;5034104;28;20095;-66
2021/04/27 08:09:17;;;;;;;6.20;2.90;;;;;;;-139.48;100.00;61774.03;5020334;28;20052;-66
2021/04/27 08:12:01;;;;;;;4.65;2.90;;;;;;;-139.48;100.00;61774.03;5019950;28;20048;-64
2021/04/27 08:14:45;;;;;;;5.47;2.88;;;;;;;-139.48;100.00;61774.03;5019946;28;20072;-66
2021/04/27 08:17:29;;;;;;;11.73;3.17;;;;;;;-139.48;100.00;61774.03;5020158;28;20079;-65
2021/04/27 08:20:14;;;;;;;8.63;2.83;;;;;;;-139.48;100.00;61774.03;5020055;28;20099;-65
2021/04/27 08:22:59;;;;;;;7.15;2.88;;;;;;;-139.48;100.00;61774.03;5020094;28;20505;-66
2021/04/27 08:25:43;;;;;;;3.63;2.80;;;;;;;-139.48;100.00;61774.03;5019830;28;20132;-65
2021/04/27 08:28:27;;;;;;;5.20;3.33;;;;;;;-139.48;100.00;61774.03;5019810;28;20410;-65
2021/04/27 08:31:11;;;;;;;7.47;3.47;;;;;;;-139.48;100.00;61774.03;5034077;28;20052;-65
2021/04/27 08:33:54;;;;;;;4.68;3.00;;;;;;;-139.48;100.00;61774.03;5019861;28;20517;-65
2021/04/27 08:36:38;;;;;;;6.82;3.40;;;;;;;-139.48;100.00;61774.03;5019815;28;20497;-65
2021/04/27 08:39:22;;;;;;;6.97;3.30;;;;;;;-139.48;100.00;61774.03;5019609;28;20103;-66
2021/04/27 08:42:06;;;;;;;;;;;;;;;-139.48;100.00;61774.03;5019925;28;20136;-66
2021/04/27 08:44:51;;;;;;;5.60;3.15;;;;;;;-139.48;100.00;61774.03;5019672;28;19927;-66
2021/04/27 08:47:35;;;;;;;4.35;3.40;;;;;;;-139.48;100.00;61774.03;5019693;28;20477;-66
2021/04/27 08:50:19;;;;;;;;;;;;;;;-139.48;100.00;61774.03;5019818;28;20520;-66
2021/04/27 08:53:04;;;;;;;7.75;3.80;;;;;;;-139.48;100.00;61774.03;5019231;28;19920;-66
2021/04/27 08:55:48;;;;;;;8.25;3.63;;;;;;;-139.48;100.00;61774.03;5019496;28;20509;-66
2021/04/27 08:58:32;;;;;;;;;;;;;;;-139.48;100.00;61774.03;5019967;28;20071;-66
2021/04/27 09:01:16;;;;;;;16.73;3.78;;;;;;;-139.48;100.00;61774.03;5019372;28;20082;-66
2021/04/27 09:04:02;;;;;;;7.40;3.75;;;;;;;-139.48;100.00;61774.03;5019245;28;20410;-65
2021/04/27 09:07:03;;;;;;;9.32;3.83;;;;;;;-139.48;100.00;61774.03;5019352;28;20064;-65
2021/04/27 09:09:54;;;;;;;9.10;3.47;;;;;;;-139.48;100.00;61774.03;5019153;28;20083;-65
2021/04/27 09:12:47;;;;;;;5.18;3.58;;;;;;;-139.48;100.00;61774.03;5019260;28;20067;-65
2021/04/27 09:15:35;;;;;;;7.90;4.13;;;;;;;-139.48;100.00;61774.03;5018850;28;20107;-65
2021/04/27 09:18:30;;;;;;;8.60;3.72;;;;;;;-139.48;100.00;61774.03;5018813;28;20074;-65
2021/04/27 09:21:15;;;;;;;8.25;3.75;;;;;;;-139.48;100.00;61774.03;5033206;28;20403;-65
2021/04/27 09:23:59;;;;;;;9.93;4.00;;;;;;;-139.48;100.00;61774.03;5018712;28;20052;-65
2021/04/27 09:26:52;;;;;;;;;;;;;;;-139.48;100.00;61774.03;5019595;28;20064;-65
2021/04/27 09:29:43;;;;;;;7.18;3.97;;;;;;;-139.48;100.00;61774.03;5018542;28;19975;-65
2021/04/27 09:32:38;;;;;;;9.30;4.18;;;;;;;-139.48;100.00;61774.03;5018554;28;20048;-65
2021/04/27 09:35:36;;;;;;;6.40;4.35;;;;;;;-139.48;100.00;61774.03;5018503;28;20039;-64
2021/04/27 09:38:26;;;;;;;10.38;4.50;;;;;;;-139.48;100.00;61774.03;5018859;28;20071;-65
2021/04/27 09:41:10;;;;;;;9.65;4.10;;;;;;;-139.48;100.00;61774.03;5019173;28;20068;-65
2021/04/27 09:43:54;;;;;;;11.85;4.70;;;;;;;-139.48;100.00;61774.03;5018698;28;20048;-65
2021/04/27 09:46:38;;;;;;;13.70;4.35;;;;;;;-139.48;100.00;61774.03;5018673;28;20128;-65
2021/04/27 09:49:29;;;;;;;8.27;4.97;;;;;;;-139.48;100.00;61774.03;5018321;28;20074;-65
2021/04/27 09:52:13;;;;;;;9.27;4.95;;;;;;;-139.48;100.00;61774.03;5018907;28;20505;-66
2021/04/27 09:55:01;;;;;;;7.95;4.57;;;;;;;-139.48;100.00;61774.03;5018617;28;20512;-66
2021/04/27 09:57:50;;;;;;;6.32;4.65;;;;;;;-139.48;100.00;61774.03;5032246;28;20052;-66
2021/04/27 10:00:38;;;;;;;8.10;4.82;;;;;;;-139.48;100.00;61774.03;5018669;28;20566;-66
2021/04/27 10:03:22;;;;;;;7.88;4.93;;;;;;;-139.48;100.00;61774.03;5018811;28;20509;-66
2021/04/27 10:06:06;;;;;;;10.20;4.70;;;;;;;-139.48;100.00;61774.03;5018472;28;20048;-66
2021/04/27 10:08:50;;;;;;;11.77;4.70;;;;;;;-139.48;100.00;61774.03;5018073;28;20095;-66
2021/04/27 10:11:35;;;;;;;7.47;5.07;;;;;;;-139.48;100.00;61774.03;5018457;28;20083;-66
2021/04/27 10:14:19;;;;;;;9.02;4.63;;;;;;;-139.48;100.00;61774.03;5018803;28;20138;-67
2021/04/27 10:17:03;;;;;;;8.10;5.10;;;;;;;-139.48;100.00;61774.03;5018835;28;20075;-66
2021/04/27 10:19:48;;;;;;;6.43;4.65;;;;;;;-139.48;100.00;61774.03;5018017;28;20061;-66
2021/04/27 10:22:32;;;;;;;9.32;5.50;;;;;;;-139.48;100.00;61774.03;5018542;28;20398;-66
2021/04/27 10:25:28;;;;;;;8.38;5.28;;;;;;;-139.48;100.00;61774.03;5018150;28;20068;-66
2021/04/27 10:28:12;;;;;;;7.43;5.00;;;;;;;-139.48;100.00;61774.03;5017813;28;20517;-66
2021/04/27 10:30:56;;;;;;;12.07;5.55;;;;;;;-139.48;100.00;61774.03;5018267;28;20173;-66
2021/04/27 10:33:57;;;;;;;8.80;5.63;;;;;;;-139.48;100.00;61774.03;5017963;28;20425;-66
2021/04/27 10:36:51;;;;;;;8.02;5.78;;;;;;;-139.48;100.00;61774.03;5018231;28;20060;-66
2021/04/27 10:39:48;;;;;;;12.02;6.10;;;;;;;-139.48;100.00;61774.03;5032100;28;20156;-66
2021/04/27 10:42:33;;;;;;;12.15;5.88;;;;;;;-139.48;100.00;61774.03;5031839;28;20095;-66
2021/04/27 10:45:30;;;;;;;7.05;5.53;;;;;;;-139.48;100.00;61774.03;5018240;28;20133;-66
2021/04/27 10:48:44;;;;;;;10.63;5.57;;;;;;;-139.48;100.00;61774.03;5019721;28;20506;-66
2021/04/27 10:51:37;;;;;;;8.85;5.75;;;;;;;-139.48;100.00;61774.03;5017105;28;20524;-66
2021/04/27 10:54:33;;;;;;;6.35;5.50;;;;;;;-139.48;100.00;61774.03;5021750;28;20128;-65
2021/04/27 10:57:18;;;;;;;7.18;5.43;;;;;;;-139.48;100.00;61774.03;5022047;28;20052;-66
2021/04/27 11:00:04;;;;;;;19.55;6.05;;;;;;;-139.48;100.00;61774.03;5021804;28;20072;-67
2021/04/27 11:03:11;;;;;;;7.63;5.70;;;;;;;-139.48;100.00;61774.03;5021502;28;20071;-66
2021/04/27 11:05:59;;;;;;;7.85;5.43;;;;;;;-139.48;100.00;61774.03;5021543;28;20568;-66
2021/04/27 11:09:12;;;;;;;8.25;5.53;;;;;;;-139.48;100.00;61774.03;5021520;28;20414;-66
2021/04/27 11:11:59;;;;;;;10.65;5.75;;;;;;;-139.48;100.00;61774.03;5021263;28;20056;-66
2021/04/27 11:14:59;;;;;;;8.70;6.50;;;;;;;-139.48;100.00;61774.03;5021531;28;20049;-66
2021/04/27 11:18:03;;;;;;;9.88;6.18;;;;;;;-139.48;100.00;61774.03;5021698;28;20052;-66
2021/04/27 11:20:54;;;;;;;6.75;5.50;;;;;;;-139.48;100.00;61774.03;5021727;28;20049;-66
2021/04/27 11:23:48;;;;;;;9.05;5.75;;;;;;;-139.48;100.00;61774.03;5021213;28;20047;-66
2021/04/27 11:26:32;;;;;;;6.78;5.30;;;;;;;-139.48;100.00;61774.03;5021166;28;20049;-66
2021/04/27 11:29:24;;;;;;;7.68;5.53;;;;;;;-139.48;100.00;61774.03;5034773;28;20092;-67
2021/04/27 11:32:13;;;;;;;10.80;5.43;;;;;;;-139.48;100.00;61774.03;5021109;28;20095;-66
2021/04/27 11:35:10;;;;;;;6.15;5.55;;;;;;;-139.48;100.00;61774.03;5020754;28;20132;-66
2021/04/27 11:37:59;;;;;;;7.65;5.38;;;;;;;-139.48;100.00;61774.03;5034721;28;20052;-67
2021/04/27 11:40:43;;;;;;;8.45;5.90;;;;;;;-139.48;100.00;61774.03;5021143;28;20103;-67
2021/04/27 11:43:27;;;;;;;7.10;5.70;;;;;;;-139.48;100.00;61774.03;5020761;28;20072;-66
2021/04/27 11:46:11;;;;;;;9.85;5.95;;;;;;;-139.48;100.00;61774.03;5020665;28;20049;-66
2021/04/27 11:48:55;;;;;;;6.85;5.30;;;;;;;-139.48;100.00;61774.03;5020218;28;20072;-67
2021/04/27 11:51:43;;;;;;;6.00;5.10;;;;;;;-139.48;100.00;61774.03;5020749;28;20137;-66
2021/04/27 11:54:34;;;;;;;10.25;5.75;;;;;;;-139.48;100.00;61774.03;5020399;28;20107;-66
2021/04/27 11:57:18;;;;;;;8.73;5.47;;;;;;;-139.48;100.00;61774.03;5034791;28;20520;-67
2021/04/27 12:00:03;;;;;;;7.60;5.57;;;;;;;-139.48;100.00;61774.03;5019516;28;20048;-67
2021/04/27 12:02:47;;;;;;;8.43;5.68;;;;;;;-139.48;100.00;61774.03;5020489;28;20103;-66
2021/04/27 12:05:33;;;;;;;7.15;5.20;;;;;;;-139.48;100.00;61774.03;5020290;28;20048;-66
2021/04/27 12:08:37;;;;;;;6.05;5.47;;;;;;;-139.48;100.00;61774.03;5020541;28;20103;-67
2021/04/27 12:11:25;;;;;;;;;;;;;;;-139.48;100.00;61774.03;5020696;28;20520;-66
2021/04/27 12:14:16;;;;;;;5.97;5.38;;;;;;;-139.48;100.00;61774.03;5033993;28;19935;-66
2021/04/27 12:17:01;;;;;;;6.93;6.22;;;;;;;-139.48;100.00;61774.03;5020375;28;20106;-67
2021/04/27 12:20:16;;;;;;;9.20;5.53;;;;;;;-139.48;100.00;61774.03;5019959;28;20053;-67
2021/04/27 12:23:04;;;;;;;7.22;6.30;;;;;;;-139.48;100.00;61774.03;5019953;28;20053;-66
2021/04/27 12:25:48;;;;;;;6.15;5.55;;;;;;;-139.48;100.00;61774.03;5033768;28;20469;-66
2021/04/27 12:28:35;;;;;;;6.75;6.05;;;;;;;-139.48;100.00;61774.03;5019777;28;20049;-66
2021/04/27 12:31:19;;;;;;;7.43;5.80;;;;;;;-139.48;100.00;61774.03;5019854;28;20052;-66
2021/04/27 12:34:06;;;;;;;8.32;5.40;;;;;;;-139.48;100.00;61774.03;5019621;28;20072;-67
2021/04/27 12:36:51;;;;;;;8.60;5.63;;;;;;;-139.48;100.00;61774.03;5019699;28;20048;-66
2021/04/27 12:39:36;;;;;;;7.57;5.57;;;;;;;-139.48;100.00;61774.03;5019753;28;20055;-67
2021/04/27 12:42:23;;;;;;;6.60;5.90;;;;;;;-139.48;100.00;61774.03;5019447;28;20144;-66